sensor_id;sensor_type;location;lat;lon;timestamp;pressure;altitude;pressure_sealevel;temperature;humidity
79413;BME280;68863;49.528;11.010;2023-07-13T00:03:30;98048.78;;;22.83;46.28
79413;BME280;68863;49.528;11.010;2023-07-13T00:42:37;98032.53;;;22.63;46.52
79413;BME280;68863;49.528;11.010;2023-07-13T00:44:33;98030.31;;;22.66;45.84
79413;BME280;68863;49.528;11.010;2023-07-13T01:40:22;98044.28;;;22.25;46.32
79413;BME280;68863;49.528;11.010;2023-07-13T01:41:22;98045.47;;;22.23;46.45
79413;BME280;68863;49.528;11.010;2023-07-13T01:42:23;98060.97;;;22.28;45.97
79413;BME280;68863;49.528;11.010;2023-07-13T01:43:23;98046.47;;;22.37;45.49
79413;BME280;68863;49.528;11.010;2023-07-13T01:44:27;98056.28;;;22.15;46.32
79413;BME280;68863;49.528;11.010;2023-07-13T01:45:27;98053.38;;;22.31;45.89
79413;BME280;68863;49.528;11.010;2023-07-13T01:46:27;98043.25;;;22.26;46.07
79413;BME280;68863;49.528;11.010;2023-07-13T01:47:27;98045.56;;;22.30;45.62
79413;BME280;68863;49.528;11.010;2023-07-13T01:48:30;98041.47;;;22.34;45.58
79413;BME280;68863;49.528;11.010;2023-07-13T01:49:31;98037.66;;;22.43;45.83
79413;BME280;68863;49.528;11.010;2023-07-13T01:50:31;98031.97;;;22.31;45.55
79413;BME280;68863;49.528;11.010;2023-07-13T01:51:31;98048.34;;;22.21;46.29
79413;BME280;68863;49.528;11.010;2023-07-13T01:52:32;98045.88;;;22.20;45.97
79413;BME280;68863;49.528;11.010;2023-07-13T01:53:32;98042.25;;;22.28;45.61
79413;BME280;68863;49.528;11.010;2023-07-13T01:54:32;98042.63;;;22.24;45.05
79413;BME280;68863;49.528;11.010;2023-07-13T01:55:34;98033.84;;;22.31;45.04
79413;BME280;68863;49.528;11.010;2023-07-13T01:56:34;98041.94;;;22.37;44.82
79413;BME280;68863;49.528;11.010;2023-07-13T01:57:35;98041.97;;;22.22;45.00
79413;BME280;68863;49.528;11.010;2023-07-13T01:58:35;98039.66;;;22.19;44.74
79413;BME280;68863;49.528;11.010;2023-07-13T01:59:36;98039.50;;;22.21;44.57
79413;BME280;68863;49.528;11.010;2023-07-13T02:00:36;98041.59;;;22.11;45.06
79413;BME280;68863;49.528;11.010;2023-07-13T02:01:36;98040.06;;;22.16;45.33
79413;BME280;68863;49.528;11.010;2023-07-13T02:02:36;98037.56;;;22.15;45.48
79413;BME280;68863;49.528;11.010;2023-07-13T02:03:37;98047.06;;;22.02;45.91
79413;BME280;68863;49.528;11.010;2023-07-13T02:04:37;98041.56;;;21.89;46.19
79413;BME280;68863;49.528;11.010;2023-07-13T02:05:37;98039.03;;;21.88;46.17
79413;BME280;68863;49.528;11.010;2023-07-13T02:06:37;98042.59;;;21.73;45.63
79413;BME280;68863;49.528;11.010;2023-07-13T02:07:38;98045.16;;;21.82;44.92
79413;BME280;68863;49.528;11.010;2023-07-13T02:08:40;98047.81;;;21.82;46.03
79413;BME280;68863;49.528;11.010;2023-07-13T02:09:41;98053.44;;;21.72;46.08
79413;BME280;68863;49.528;11.010;2023-07-13T02:10:42;98055.53;;;21.76;45.92
79413;BME280;68863;49.528;11.010;2023-07-13T02:11:42;98048.66;;;21.82;46.26
79413;BME280;68863;49.528;11.010;2023-07-13T02:12:42;98039.09;;;21.73;46.11
79413;BME280;68863;49.528;11.010;2023-07-13T02:13:43;98050.66;;;21.80;46.45
79413;BME280;68863;49.528;11.010;2023-07-13T02:14:43;98052.41;;;21.88;46.37
79413;BME280;68863;49.528;11.010;2023-07-13T02:15:44;98052.97;;;21.83;46.17
79413;BME280;68863;49.528;11.010;2023-07-13T02:16:44;98051.78;;;21.86;46.03
79413;BME280;68863;49.528;11.010;2023-07-13T02:17:44;98052.25;;;21.74;46.75
79413;BME280;68863;49.528;11.010;2023-07-13T02:18:44;98053.91;;;21.75;45.98
79413;BME280;68863;49.528;11.010;2023-07-13T02:19:45;98063.66;;;21.68;46.67
79413;BME280;68863;49.528;11.010;2023-07-13T02:20:45;98058.31;;;21.83;46.10
79413;BME280;68863;49.528;11.010;2023-07-13T02:21:46;98058.69;;;21.95;45.74
79413;BME280;68863;49.528;11.010;2023-07-13T02:22:46;98063.00;;;21.96;45.56
79413;BME280;68863;49.528;11.010;2023-07-13T02:23:46;98061.66;;;21.85;45.86
79413;BME280;68863;49.528;11.010;2023-07-13T02:24:47;98057.28;;;21.99;45.51
79413;BME280;68863;49.528;11.010;2023-07-13T02:25:47;98056.81;;;21.95;45.53
79413;BME280;68863;49.528;11.010;2023-07-13T02:26:47;98054.09;;;21.89;45.59
79413;BME280;68863;49.528;11.010;2023-07-13T02:27:48;98059.69;;;21.64;46.38
79413;BME280;68863;49.528;11.010;2023-07-13T02:28:48;98057.13;;;21.71;46.85
79413;BME280;68863;49.528;11.010;2023-07-13T02:29:48;98053.44;;;21.72;46.46
79413;BME280;68863;49.528;11.010;2023-07-13T02:30:51;98056.66;;;21.67;47.33
79413;BME280;68863;49.528;11.010;2023-07-13T02:31:51;98050.22;;;21.47;48.02
79413;BME280;68863;49.528;11.010;2023-07-13T02:32:51;98047.81;;;21.52;48.36
79413;BME280;68863;49.528;11.010;2023-07-13T02:33:52;98049.56;;;21.45;47.86
79413;BME280;68863;49.528;11.010;2023-07-13T02:34:52;98059.91;;;21.63;46.48
79413;BME280;68863;49.528;11.010;2023-07-13T02:35:53;98059.44;;;21.59;46.26
79413;BME280;68863;49.528;11.010;2023-07-13T02:36:55;98062.47;;;21.71;46.21
79413;BME280;68863;49.528;11.010;2023-07-13T02:37:56;98061.84;;;21.54;46.42
79413;BME280;68863;49.528;11.010;2023-07-13T02:38:57;98056.66;;;21.52;46.31
79413;BME280;68863;49.528;11.010;2023-07-13T02:39:58;98059.44;;;21.59;46.13
79413;BME280;68863;49.528;11.010;2023-07-13T02:40:58;98062.81;;;21.53;46.23
79413;BME280;68863;49.528;11.010;2023-07-13T02:41:59;98065.44;;;21.61;46.05
79413;BME280;68863;49.528;11.010;2023-07-13T02:43:00;98059.59;;;21.72;45.39
79413;BME280;68863;49.528;11.010;2023-07-13T02:44:00;98055.56;;;21.47;46.16
79413;BME280;68863;49.528;11.010;2023-07-13T02:45:04;98059.63;;;21.58;46.30
79413;BME280;68863;49.528;11.010;2023-07-13T02:46:04;98067.09;;;21.62;45.89
79413;BME280;68863;49.528;11.010;2023-07-13T02:47:07;98068.75;;;21.63;46.10
79413;BME280;68863;49.528;11.010;2023-07-13T02:48:07;98064.88;;;21.66;45.68
79413;BME280;68863;49.528;11.010;2023-07-13T02:49:08;98064.56;;;21.61;45.54
79413;BME280;68863;49.528;11.010;2023-07-13T02:50:08;98070.47;;;21.56;45.42
79413;BME280;68863;49.528;11.010;2023-07-13T02:51:08;98066.41;;;21.60;45.42
79413;BME280;68863;49.528;11.010;2023-07-13T02:52:09;98080.44;;;21.47;46.12
79413;BME280;68863;49.528;11.010;2023-07-13T02:53:09;98070.28;;;21.43;46.56
79413;BME280;68863;49.528;11.010;2023-07-13T02:54:10;98072.69;;;21.38;46.13
79413;BME280;68863;49.528;11.010;2023-07-13T02:55:11;98078.72;;;21.32;46.65
79413;BME280;68863;49.528;11.010;2023-07-13T02:56:12;98079.72;;;21.31;46.93
79413;BME280;68863;49.528;11.010;2023-07-13T02:57:12;98080.03;;;21.36;46.53
79413;BME280;68863;49.528;11.010;2023-07-13T02:58:13;98085.38;;;21.36;45.94
79413;BME280;68863;49.528;11.010;2023-07-13T02:59:16;98075.00;;;21.18;46.82
79413;BME280;68863;49.528;11.010;2023-07-13T03:00:17;98080.41;;;21.33;46.09
79413;BME280;68863;49.528;11.010;2023-07-13T03:01:17;98080.88;;;21.36;46.24
79413;BME280;68863;49.528;11.010;2023-07-13T03:02:18;98089.34;;;21.40;46.64
79413;BME280;68863;49.528;11.010;2023-07-13T03:03:19;98087.25;;;21.50;46.11
79413;BME280;68863;49.528;11.010;2023-07-13T03:04:20;98082.16;;;21.40;46.00
79413;BME280;68863;49.528;11.010;2023-07-13T03:05:21;98086.81;;;21.23;46.10
79413;BME280;68863;49.528;11.010;2023-07-13T03:06:21;98092.72;;;21.34;46.32
79413;BME280;68863;49.528;11.010;2023-07-13T03:07:22;98086.34;;;21.20;46.56
79413;BME280;68863;49.528;11.010;2023-07-13T03:08:23;98079.06;;;21.28;46.69
79413;BME280;68863;49.528;11.010;2023-07-13T03:09:24;98081.00;;;21.20;46.86
79413;BME280;68863;49.528;11.010;2023-07-13T03:10:25;98083.59;;;21.28;46.52
79413;BME280;68863;49.528;11.010;2023-07-13T03:11:25;98089.69;;;21.37;46.14
79413;BME280;68863;49.528;11.010;2023-07-13T03:12:26;98089.13;;;21.26;46.43
79413;BME280;68863;49.528;11.010;2023-07-13T03:13:26;98094.06;;;21.38;46.22
79413;BME280;68863;49.528;11.010;2023-07-13T03:14:26;98091.81;;;21.41;46.35
79413;BME280;68863;49.528;11.010;2023-07-13T03:15:27;98089.16;;;21.41;45.56
79413;BME280;68863;49.528;11.010;2023-07-13T03:16:27;98090.25;;;21.09;46.74
79413;BME280;68863;49.528;11.010;2023-07-13T03:17:27;98091.63;;;21.05;47.16
79413;BME280;68863;49.528;11.010;2023-07-13T03:18:28;98096.72;;;21.15;47.09
79413;BME280;68863;49.528;11.010;2023-07-13T03:19:28;98094.28;;;21.05;47.19
79413;BME280;68863;49.528;11.010;2023-07-13T03:20:31;98095.34;;;21.19;46.80
79413;BME280;68863;49.528;11.010;2023-07-13T03:21:32;98097.94;;;21.27;46.27
79413;BME280;68863;49.528;11.010;2023-07-13T03:22:32;98093.63;;;21.26;46.64
79413;BME280;68863;49.528;11.010;2023-07-13T03:23:32;98106.50;;;21.22;46.43
79413;BME280;68863;49.528;11.010;2023-07-13T03:24:34;98099.41;;;21.15;46.33
79413;BME280;68863;49.528;11.010;2023-07-13T03:25:37;98110.78;;;21.09;46.50
79413;BME280;68863;49.528;11.010;2023-07-13T03:26:38;98111.31;;;21.04;46.57
79413;BME280;68863;49.528;11.010;2023-07-13T03:27:38;98115.91;;;20.95;46.62
79413;BME280;68863;49.528;11.010;2023-07-13T03:28:39;98121.41;;;20.94;46.35
79413;BME280;68863;49.528;11.010;2023-07-13T03:29:40;98123.00;;;20.80;46.77
79413;BME280;68863;49.528;11.010;2023-07-13T03:30:41;98119.50;;;20.79;46.55
79413;BME280;68863;49.528;11.010;2023-07-13T03:31:43;98126.72;;;20.71;46.73
79413;BME280;68863;49.528;11.010;2023-07-13T03:32:44;98132.06;;;20.71;46.91
79413;BME280;68863;49.528;11.010;2023-07-13T03:33:45;98125.28;;;20.91;46.53
79413;BME280;68863;49.528;11.010;2023-07-13T03:34:45;98123.00;;;20.80;46.78
79413;BME280;68863;49.528;11.010;2023-07-13T03:35:45;98127.69;;;20.78;47.52
79413;BME280;68863;49.528;11.010;2023-07-13T03:36:46;98137.59;;;20.69;47.54
79413;BME280;68863;49.528;11.010;2023-07-13T03:37:46;98136.28;;;20.65;47.77
79413;BME280;68863;49.528;11.010;2023-07-13T03:38:47;98133.84;;;20.78;46.66
79413;BME280;68863;49.528;11.010;2023-07-13T03:39:48;98136.75;;;20.69;46.93
79413;BME280;68863;49.528;11.010;2023-07-13T03:40:48;98135.94;;;20.68;46.72
79413;BME280;68863;49.528;11.010;2023-07-13T03:41:49;98138.66;;;20.60;47.73
79413;BME280;68863;49.528;11.010;2023-07-13T03:42:49;98136.69;;;20.46;47.58
79413;BME280;68863;49.528;11.010;2023-07-13T03:43:50;98148.06;;;20.31;47.78
79413;BME280;68863;49.528;11.010;2023-07-13T03:44:50;98137.03;;;20.43;47.74
79413;BME280;68863;49.528;11.010;2023-07-13T03:45:52;98145.16;;;20.58;47.16
79413;BME280;68863;49.528;11.010;2023-07-13T03:46:52;98133.53;;;20.42;47.80
79413;BME280;68863;49.528;11.010;2023-07-13T03:47:53;98140.69;;;20.50;47.43
79413;BME280;68863;49.528;11.010;2023-07-13T03:48:53;98145.06;;;20.35;47.65
79413;BME280;68863;49.528;11.010;2023-07-13T03:49:53;98148.25;;;20.30;47.64
79413;BME280;68863;49.528;11.010;2023-07-13T03:50:54;98153.09;;;20.26;47.62
79413;BME280;68863;49.528;11.010;2023-07-13T03:51:54;98146.91;;;20.34;47.65
79413;BME280;68863;49.528;11.010;2023-07-13T03:52:54;98150.88;;;20.38;48.06
79413;BME280;68863;49.528;11.010;2023-07-13T03:53:56;98153.09;;;20.26;48.17
79413;BME280;68863;49.528;11.010;2023-07-13T03:54:56;98158.28;;;20.20;47.70
79413;BME280;68863;49.528;11.010;2023-07-13T03:55:57;98162.44;;;20.22;48.06
79413;BME280;68863;49.528;11.010;2023-07-13T03:56:57;98150.44;;;20.26;47.53
79413;BME280;68863;49.528;11.010;2023-07-13T03:58:00;98151.44;;;20.25;48.17
79413;BME280;68863;49.528;11.010;2023-07-13T03:59:01;98147.25;;;20.31;47.61
79413;BME280;68863;49.528;11.010;2023-07-13T04:00:02;98146.94;;;20.26;47.81
79413;BME280;68863;49.528;11.010;2023-07-13T04:01:05;98151.59;;;20.24;47.55
79413;BME280;68863;49.528;11.010;2023-07-13T04:02:05;98154.44;;;20.22;47.39
79413;BME280;68863;49.528;11.010;2023-07-13T04:03:06;98156.28;;;20.22;47.84
79413;BME280;68863;49.528;11.010;2023-07-13T04:04:06;98157.44;;;20.19;47.55
79413;BME280;68863;49.528;11.010;2023-07-13T04:05:06;98160.31;;;20.18;47.58
79413;BME280;68863;49.528;11.010;2023-07-13T04:06:11;98163.13;;;20.16;47.81
79413;BME280;68863;49.528;11.010;2023-07-13T04:07:17;98160.41;;;20.24;47.91
79413;BME280;68863;49.528;11.010;2023-07-13T04:08:19;98154.22;;;20.32;46.74
79413;BME280;68863;49.528;11.010;2023-07-13T04:09:19;98168.41;;;20.24;47.13
79413;BME280;68863;49.528;11.010;2023-07-13T04:10:19;98165.50;;;20.03;48.10
79413;BME280;68863;49.528;11.010;2023-07-13T04:11:21;98169.31;;;20.17;47.51
79413;BME280;68863;49.528;11.010;2023-07-13T04:12:22;98172.94;;;20.16;47.22
79413;BME280;68863;49.528;11.010;2023-07-13T04:13:23;98173.28;;;20.13;47.75
79413;BME280;68863;49.528;11.010;2023-07-13T04:14:24;98173.53;;;19.95;48.26
79413;BME280;68863;49.528;11.010;2023-07-13T04:15:24;98170.69;;;19.96;48.13
79413;BME280;68863;49.528;11.010;2023-07-13T04:16:25;98180.19;;;19.99;48.08
79413;BME280;68863;49.528;11.010;2023-07-13T04:17:25;98171.03;;;19.85;48.69
79413;BME280;68863;49.528;11.010;2023-07-13T04:18:26;98169.69;;;19.89;48.22
79413;BME280;68863;49.528;11.010;2023-07-13T04:19:26;98179.53;;;19.80;48.16
79413;BME280;68863;49.528;11.010;2023-07-13T04:20:26;98179.19;;;19.92;48.19
79413;BME280;68863;49.528;11.010;2023-07-13T04:21:28;98173.53;;;19.87;48.06
79413;BME280;68863;49.528;11.010;2023-07-13T04:22:29;98169.69;;;19.89;47.70
79413;BME280;68863;49.528;11.010;2023-07-13T04:23:29;98166.88;;;19.91;48.21
79413;BME280;68863;49.528;11.010;2023-07-13T04:24:29;98176.84;;;19.97;47.79
79413;BME280;68863;49.528;11.010;2023-07-13T04:25:29;98168.22;;;19.87;48.15
79413;BME280;68863;49.528;11.010;2023-07-13T04:26:30;98170.06;;;19.78;48.47
79413;BME280;68863;49.528;11.010;2023-07-13T04:27:30;98165.22;;;19.81;48.29
79413;BME280;68863;49.528;11.010;2023-07-13T04:28:31;98173.53;;;19.87;47.98
79413;BME280;68863;49.528;11.010;2023-07-13T04:29:31;98164.88;;;19.85;47.78
79413;BME280;68863;49.528;11.010;2023-07-13T04:30:31;98165.41;;;19.72;48.10
79413;BME280;68863;49.528;11.010;2023-07-13T04:31:32;98168.56;;;19.75;48.69
79413;BME280;68863;49.528;11.010;2023-07-13T04:32:33;98167.06;;;19.73;48.17
79413;BME280;68863;49.528;11.010;2023-07-13T04:33:36;98165.56;;;19.78;48.55
79413;BME280;68863;49.528;11.010;2023-07-13T04:34:36;98174.53;;;19.77;48.10
79413;BME280;68863;49.528;11.010;2023-07-13T04:35:37;98178.03;;;19.86;48.36
79413;BME280;68863;49.528;11.010;2023-07-13T04:36:37;98172.50;;;19.96;47.91
79413;BME280;68863;49.528;11.010;2023-07-13T04:37:37;98176.38;;;19.93;47.99
79413;BME280;68863;49.528;11.010;2023-07-13T04:38:37;98172.97;;;20.07;47.46
79413;BME280;68863;49.528;11.010;2023-07-13T04:39:38;98173.66;;;20.10;47.65
79413;BME280;68863;49.528;11.010;2023-07-13T04:40:38;98182.47;;;20.10;47.80
79413;BME280;68863;49.528;11.010;2023-07-13T04:41:38;98174.16;;;19.97;47.94
79413;BME280;68863;49.528;11.010;2023-07-13T04:42:39;98184.47;;;20.08;47.67
79413;BME280;68863;49.528;11.010;2023-07-13T04:43:39;98183.28;;;20.19;47.72
79413;BME280;68863;49.528;11.010;2023-07-13T04:44:42;98179.59;;;20.20;47.26
79413;BME280;68863;49.528;11.010;2023-07-13T04:45:47;98184.47;;;20.08;47.46
79413;BME280;68863;49.528;11.010;2023-07-13T04:46:50;98178.50;;;20.06;47.84
79413;BME280;68863;49.528;11.010;2023-07-13T04:47:50;98189.78;;;20.16;47.77
79413;BME280;68863;49.528;11.010;2023-07-13T04:48:50;98186.25;;;20.24;47.93
79413;BME280;68863;49.528;11.010;2023-07-13T04:49:53;98184.22;;;20.34;47.56
79413;BME280;68863;49.528;11.010;2023-07-13T04:50:55;98181.72;;;20.41;47.32
79413;BME280;68863;49.528;11.010;2023-07-13T04:51:55;98185.59;;;20.30;47.00
79413;BME280;68863;49.528;11.010;2023-07-13T04:52:56;98188.88;;;20.32;46.74
79413;BME280;68863;49.528;11.010;2023-07-13T04:53:56;98184.94;;;20.20;47.15
79413;BME280;68863;49.528;11.010;2023-07-13T04:54:56;98187.78;;;20.18;47.66
79413;BME280;68863;49.528;11.010;2023-07-13T04:55:56;98191.03;;;19.97;47.84
79413;BME280;68863;49.528;11.010;2023-07-13T04:56:57;98191.97;;;20.04;48.38
79413;BME280;68863;49.528;11.010;2023-07-13T04:57:58;98191.31;;;20.11;47.26
79413;BME280;68863;49.528;11.010;2023-07-13T04:59:02;98194.50;;;20.06;47.90
79413;BME280;68863;49.528;11.010;2023-07-13T05:00:04;98193.81;;;20.04;48.15
79413;BME280;68863;49.528;11.010;2023-07-13T05:01:07;98195.97;;;20.08;47.90
79413;BME280;68863;49.528;11.010;2023-07-13T05:02:10;98197.00;;;19.91;49.00
79413;BME280;68863;49.528;11.010;2023-07-13T05:03:10;98199.84;;;19.98;48.37
79413;BME280;68863;49.528;11.010;2023-07-13T05:04:10;98202.00;;;20.02;48.04
79413;BME280;68863;49.528;11.010;2023-07-13T05:05:10;98204.47;;;20.04;47.76
79413;BME280;68863;49.528;11.010;2023-07-13T05:06:11;98202.47;;;20.06;47.75
79413;BME280;68863;49.528;11.010;2023-07-13T05:07:11;98203.03;;;19.93;48.37
79413;BME280;68863;49.528;11.010;2023-07-13T05:08:30;98207.66;;;19.91;48.80
79413;BME280;68863;49.528;11.010;2023-07-13T05:09:33;98201.19;;;19.94;48.58
79413;BME280;68863;49.528;11.010;2023-07-13T05:10:36;98209.16;;;20.02;48.50
79413;BME280;68863;49.528;11.010;2023-07-13T05:11:36;98208.13;;;20.11;48.45
79413;BME280;68863;49.528;11.010;2023-07-13T05:12:37;98211.50;;;20.05;47.71
79413;BME280;68863;49.528;11.010;2023-07-13T05:13:37;98202.03;;;19.78;47.95
79413;BME280;68863;49.528;11.010;2023-07-13T05:14:37;98211.84;;;19.86;48.27
79413;BME280;68863;49.528;11.010;2023-07-13T05:15:38;98205.66;;;19.85;47.93
79413;BME280;68863;49.528;11.010;2023-07-13T05:16:38;98211.34;;;19.82;48.23
79413;BME280;68863;49.528;11.010;2023-07-13T05:17:38;98213.34;;;19.88;47.49
79413;BME280;68863;49.528;11.010;2023-07-13T05:18:41;98205.69;;;19.93;47.95
79413;BME280;68863;49.528;11.010;2023-07-13T05:19:41;98211.97;;;20.00;47.59
79413;BME280;68863;49.528;11.010;2023-07-13T05:20:42;98200.69;;;19.90;47.93
79413;BME280;68863;49.528;11.010;2023-07-13T05:21:42;98206.88;;;19.74;47.80
79413;BME280;68863;49.528;11.010;2023-07-13T05:22:42;98206.84;;;19.91;47.69
79413;BME280;68863;49.528;11.010;2023-07-13T05:23:43;98207.00;;;19.97;48.34
79413;BME280;68863;49.528;11.010;2023-07-13T05:24:43;98214.63;;;20.00;47.87
79413;BME280;68863;49.528;11.010;2023-07-13T05:25:44;98216.50;;;19.83;48.56
79413;BME280;68863;49.528;11.010;2023-07-13T05:26:44;98212.84;;;19.85;48.18
79413;BME280;68863;49.528;11.010;2023-07-13T05:27:44;98217.00;;;19.87;48.26
79413;BME280;68863;49.528;11.010;2023-07-13T05:28:46;98205.69;;;19.77;47.62
79413;BME280;68863;49.528;11.010;2023-07-13T05:29:46;98205.53;;;19.78;48.27
79413;BME280;68863;49.528;11.010;2023-07-13T05:30:48;98212.34;;;19.97;47.52
79413;BME280;68863;49.528;11.010;2023-07-13T05:31:49;98213.19;;;19.73;47.54
79413;BME280;68863;49.528;11.010;2023-07-13T05:32:50;98208.69;;;19.66;48.00
79413;BME280;68863;49.528;11.010;2023-07-13T05:33:50;98215.19;;;19.47;48.41
79413;BME280;68863;49.528;11.010;2023-07-13T05:34:50;98224.66;;;19.66;47.90
79413;BME280;68863;49.528;11.010;2023-07-13T05:35:51;98222.16;;;19.56;48.56
79413;BME280;68863;49.528;11.010;2023-07-13T05:36:51;98217.84;;;19.71;47.88
79413;BME280;68863;49.528;11.010;2023-07-13T05:37:52;98221.16;;;19.73;47.64
79413;BME280;68863;49.528;11.010;2023-07-13T05:38:52;98213.16;;;19.81;47.86
79413;BME280;68863;49.528;11.010;2023-07-13T05:39:52;98210.38;;;19.75;48.25
79413;BME280;68863;49.528;11.010;2023-07-13T05:40:54;98210.69;;;19.80;49.08
79413;BME280;68863;49.528;11.010;2023-07-13T05:41:55;98221.50;;;19.95;48.60
79413;BME280;68863;49.528;11.010;2023-07-13T05:42:55;98211.47;;;19.97;47.90
79413;BME280;68863;49.528;11.010;2023-07-13T05:43:56;98217.31;;;20.00;48.50
79413;BME280;68863;49.528;11.010;2023-07-13T05:44:56;98221.31;;;19.96;47.72
79413;BME280;68863;49.528;11.010;2023-07-13T05:45:57;98218.63;;;20.04;46.76
79413;BME280;68863;49.528;11.010;2023-07-13T05:46:57;98227.47;;;19.97;47.54
79413;BME280;68863;49.528;11.010;2023-07-13T05:47:57;98237.00;;;19.75;48.22
79413;BME280;68863;49.528;11.010;2023-07-13T05:48:57;98221.66;;;19.77;47.63
79413;BME280;68863;49.528;11.010;2023-07-13T05:49:58;98228.50;;;19.79;47.80
79413;BME280;68863;49.528;11.010;2023-07-13T05:50:58;98225.31;;;19.92;47.86
79413;BME280;68863;49.528;11.010;2023-07-13T05:51:58;98231.47;;;20.01;48.45
79413;BME280;68863;49.528;11.010;2023-07-13T05:52:59;98230.47;;;20.02;49.04
79413;BME280;68863;49.528;11.010;2023-07-13T05:53:59;98237.66;;;20.01;47.07
79413;BME280;68863;49.528;11.010;2023-07-13T05:54:59;98224.16;;;19.95;47.16
79413;BME280;68863;49.528;11.010;2023-07-13T05:56:00;98223.81;;;19.81;48.53
79413;BME280;68863;49.528;11.010;2023-07-13T05:57:00;98241.47;;;19.91;47.02
79413;BME280;68863;49.528;11.010;2023-07-13T05:58:01;98239.81;;;19.73;48.00
79413;BME280;68863;49.528;11.010;2023-07-13T05:59:01;98236.31;;;19.81;47.67
79413;BME280;68863;49.528;11.010;2023-07-13T06:00:02;98236.66;;;19.86;46.70
79413;BME280;68863;49.528;11.010;2023-07-13T06:01:09;98233.16;;;19.86;47.93
79413;BME280;68863;49.528;11.010;2023-07-13T06:02:10;98230.31;;;19.95;47.73
79413;BME280;68863;49.528;11.010;2023-07-13T06:03:11;98246.47;;;19.94;47.52
79413;BME280;68863;49.528;11.010;2023-07-13T06:04:11;98240.97;;;19.87;46.87
79413;BME280;68863;49.528;11.010;2023-07-13T06:05:11;98239.16;;;19.88;47.27
79413;BME280;68863;49.528;11.010;2023-07-13T06:06:12;98243.84;;;19.86;47.38
79413;BME280;68863;49.528;11.010;2023-07-13T06:07:12;98246.16;;;19.72;47.88
79413;BME280;68863;49.528;11.010;2023-07-13T06:08:12;98238.50;;;19.94;46.78
79413;BME280;68863;49.528;11.010;2023-07-13T06:09:13;98237.50;;;19.70;47.76
79413;BME280;68863;49.528;11.010;2023-07-13T06:10:13;98239.50;;;19.68;47.32
79413;BME280;68863;49.528;11.010;2023-07-13T06:11:19;98255.16;;;19.71;47.40
79413;BME280;68863;49.528;11.010;2023-07-13T06:12:19;98249.81;;;19.71;47.53
79413;BME280;68863;49.528;11.010;2023-07-13T06:13:19;98246.00;;;19.82;47.25
79413;BME280;68863;49.528;11.010;2023-07-13T06:14:20;98245.00;;;19.75;47.27
79413;BME280;68863;49.528;11.010;2023-07-13T06:15:20;98246.34;;;19.63;48.29
79413;BME280;68863;49.528;11.010;2023-07-13T06:16:23;98249.50;;;19.74;47.62
79413;BME280;68863;49.528;11.010;2023-07-13T06:17:23;98246.44;;;19.61;48.35
79413;BME280;68863;49.528;11.010;2023-07-13T06:18:26;98250.66;;;19.72;48.22
79413;BME280;68863;49.528;11.010;2023-07-13T06:19:28;98246.81;;;19.82;47.39
79413;BME280;68863;49.528;11.010;2023-07-13T06:20:29;98254.13;;;19.80;47.90
79413;BME280;68863;49.528;11.010;2023-07-13T06:21:29;98251.81;;;19.86;47.38
79413;BME280;68863;49.528;11.010;2023-07-13T06:22:29;98248.16;;;19.87;47.75
79413;BME280;68863;49.528;11.010;2023-07-13T06:23:32;98239.81;;;19.90;47.78
79413;BME280;68863;49.528;11.010;2023-07-13T06:24:32;98243.97;;;19.92;48.19
79413;BME280;68863;49.528;11.010;2023-07-13T06:25:33;98254.13;;;19.89;47.38
79413;BME280;68863;49.528;11.010;2023-07-13T06:26:33;98243.31;;;19.98;47.18
79413;BME280;68863;49.528;11.010;2023-07-13T06:27:33;98235.63;;;19.95;48.17
79413;BME280;68863;49.528;11.010;2023-07-13T06:28:34;98234.63;;;20.04;48.22
79413;BME280;68863;49.528;11.010;2023-07-13T06:29:35;98236.63;;;20.02;48.11
79413;BME280;68863;49.528;11.010;2023-07-13T06:30:38;98243.78;;;20.10;46.76
79413;BME280;68863;49.528;11.010;2023-07-13T06:31:38;98243.28;;;20.15;47.54
79413;BME280;68863;49.528;11.010;2023-07-13T06:32:38;98246.44;;;20.18;48.11
79413;BME280;68863;49.528;11.010;2023-07-13T06:33:39;98247.75;;;20.22;47.95
79413;BME280;68863;49.528;11.010;2023-07-13T06:34:39;98250.22;;;20.32;47.59
79413;BME280;68863;49.528;11.010;2023-07-13T06:35:40;98246.19;;;20.36;46.99
79413;BME280;68863;49.528;11.010;2023-07-13T06:36:40;98239.88;;;20.37;47.71
79413;BME280;68863;49.528;11.010;2023-07-13T06:37:43;98247.56;;;20.40;46.65
79413;BME280;68863;49.528;11.010;2023-07-13T06:38:43;98249.25;;;20.33;47.18
79413;BME280;68863;49.528;11.010;2023-07-13T06:39:44;98251.06;;;20.24;46.60
79413;BME280;68863;49.528;11.010;2023-07-13T06:40:44;98256.75;;;20.21;46.92
79413;BME280;68863;49.528;11.010;2023-07-13T06:41:45;98251.09;;;20.16;47.08
79413;BME280;68863;49.528;11.010;2023-07-13T06:42:45;98253.09;;;20.22;46.54
79413;BME280;68863;49.528;11.010;2023-07-13T06:43:45;98261.06;;;20.30;46.78
79413;BME280;68863;49.528;11.010;2023-07-13T06:44:46;98255.56;;;20.32;45.84
79413;BME280;68863;49.528;11.010;2023-07-13T06:45:49;98259.06;;;20.33;45.83
79413;BME280;68863;49.528;11.010;2023-07-13T06:46:50;98261.59;;;20.26;45.90
79413;BME280;68863;49.528;11.010;2023-07-13T06:47:53;98260.75;;;20.25;46.27
79413;BME280;68863;49.528;11.010;2023-07-13T06:48:53;98253.72;;;20.24;46.95
79413;BME280;68863;49.528;11.010;2023-07-13T06:49:53;98264.88;;;20.28;47.55
79413;BME280;68863;49.528;11.010;2023-07-13T06:50:54;98266.88;;;20.34;47.33
79413;BME280;68863;49.528;11.010;2023-07-13T06:51:54;98270.06;;;20.29;47.11
79413;BME280;68863;49.528;11.010;2023-07-13T06:52:54;98260.03;;;20.40;47.39
79413;BME280;68863;49.528;11.010;2023-07-13T06:53:57;98265.91;;;20.27;47.85
79413;BME280;68863;49.528;11.010;2023-07-13T06:54:57;98269.88;;;20.31;47.40